sensor_id;sensor_type;location;lat;lon;timestamp;temperature;humidity
20654;DHT22;21083;50.898;4.902;2022-08-21T00:01:54;18.80;99.90
20654;DHT22;21083;50.898;4.902;2022-08-21T00:04:21;18.70;99.90
20654;DHT22;21083;50.898;4.902;2022-08-21T00:06:48;18.70;99.90
20654;DHT22;21083;50.898;4.902;2022-08-21T00:09:15;18.70;99.90
20654;DHT22;21083;50.898;4.902;2022-08-21T00:11:43;18.60;99.90
20654;DHT22;21083;50.898;4.902;2022-08-21T00:14:11;18.60;99.90
20654;DHT22;21083;50.898;4.902;2022-08-21T00:16:40;18.60;99.90
20654;DHT22;21083;50.898;4.902;2022-08-21T00:19:08;18.60;99.90
20654;DHT22;21083;50.898;4.902;2022-08-21T00:21:36;18.50;99.90
20654;DHT22;21083;50.898;4.902;2022-08-21T00:24:03;18.50;99.90
20654;DHT22;21083;50.898;4.902;2022-08-21T00:26:30;18.50;99.90
20654;DHT22;21083;50.898;4.902;2022-08-21T00:28:57;18.50;99.90
20654;DHT22;21083;50.898;4.902;2022-08-21T00:31:24;18.40;99.90
20654;DHT22;21083;50.898;4.902;2022-08-21T00:33:52;18.40;99.90
20654;DHT22;21083;50.898;4.902;2022-08-21T00:36:19;18.40;99.90
20654;DHT22;21083;50.898;4.902;2022-08-21T00:38:46;18.30;99.90
20654;DHT22;21083;50.898;4.902;2022-08-21T00:41:13;18.30;99.90
20654;DHT22;21083;50.898;4.902;2022-08-21T00:43:40;18.30;99.90
20654;DHT22;21083;50.898;4.902;2022-08-21T00:46:07;18.30;99.90
20654;DHT22;21083;50.898;4.902;2022-08-21T00:48:34;18.20;99.90
20654;DHT22;21083;50.898;4.902;2022-08-21T00:51:07;18.20;99.90
20654;DHT22;21083;50.898;4.902;2022-08-21T00:53:36;18.10;99.90
20654;DHT22;21083;50.898;4.902;2022-08-21T00:56:05;18.10;99.90
20654;DHT22;21083;50.898;4.902;2022-08-21T00:58:33;18.10;99.90
20654;DHT22;21083;50.898;4.902;2022-08-21T01:01:04;18.10;99.90
20654;DHT22;21083;50.898;4.902;2022-08-21T01:03:32;18.10;99.90
20654;DHT22;21083;50.898;4.902;2022-08-21T01:05:59;18.10;99.90
20654;DHT22;21083;50.898;4.902;2022-08-21T01:08:27;18.10;99.90
20654;DHT22;21083;50.898;4.902;2022-08-21T01:10:57;18.00;99.90
20654;DHT22;21083;50.898;4.902;2022-08-21T01:13:26;18.00;99.90
20654;DHT22;21083;50.898;4.902;2022-08-21T01:15:55;17.90;99.90
20654;DHT22;21083;50.898;4.902;2022-08-21T01:18:25;17.80;99.90
20654;DHT22;21083;50.898;4.902;2022-08-21T01:21:07;17.80;99.90
20654;DHT22;21083;50.898;4.902;2022-08-21T01:23:35;17.80;99.90
20654;DHT22;21083;50.898;4.902;2022-08-21T01:26:04;17.80;99.90
20654;DHT22;21083;50.898;4.902;2022-08-21T01:28:36;17.70;99.90
20654;DHT22;21083;50.898;4.902;2022-08-21T01:31:05;17.70;99.90
20654;DHT22;21083;50.898;4.902;2022-08-21T01:33:33;17.70;99.90
20654;DHT22;21083;50.898;4.902;2022-08-21T01:36:00;17.70;99.90
20654;DHT22;21083;50.898;4.902;2022-08-21T01:38:28;17.70;99.90
20654;DHT22;21083;50.898;4.902;2022-08-21T01:40:55;17.70;99.90
20654;DHT22;21083;50.898;4.902;2022-08-21T01:43:22;17.60;99.90
20654;DHT22;21083;50.898;4.902;2022-08-21T01:45:49;17.50;99.90
20654;DHT22;21083;50.898;4.902;2022-08-21T01:48:17;17.30;99.90
20654;DHT22;21083;50.898;4.902;2022-08-21T01:50:44;17.20;99.90
20654;DHT22;21083;50.898;4.902;2022-08-21T01:53:11;17.20;99.90
20654;DHT22;21083;50.898;4.902;2022-08-21T01:55:40;17.20;99.90
20654;DHT22;21083;50.898;4.902;2022-08-21T01:58:07;17.30;99.90
20654;DHT22;21083;50.898;4.902;2022-08-21T02:00:34;17.30;99.90
20654;DHT22;21083;50.898;4.902;2022-08-21T02:03:01;17.30;99.90
20654;DHT22;21083;50.898;4.902;2022-08-21T02:05:28;17.40;99.90
20654;DHT22;21083;50.898;4.902;2022-08-21T02:07:56;17.30;99.90
20654;DHT22;21083;50.898;4.902;2022-08-21T02:10:25;17.30;99.90
20654;DHT22;21083;50.898;4.902;2022-08-21T02:12:55;17.30;99.90
20654;DHT22;21083;50.898;4.902;2022-08-21T02:15:22;17.20;99.90
20654;DHT22;21083;50.898;4.902;2022-08-21T02:17:51;17.20;99.90
20654;DHT22;21083;50.898;4.902;2022-08-21T02:20:23;17.20;99.90
20654;DHT22;21083;50.898;4.902;2022-08-21T02:22:50;17.20;99.90
20654;DHT22;21083;50.898;4.902;2022-08-21T02:25:18;17.20;99.90
20654;DHT22;21083;50.898;4.902;2022-08-21T02:27:47;17.20;99.90
20654;DHT22;21083;50.898;4.902;2022-08-21T02:30:18;17.20;99.90
20654;DHT22;21083;50.898;4.902;2022-08-21T02:32:45;17.10;99.90
20654;DHT22;21083;50.898;4.902;2022-08-21T02:35:12;17.10;99.90
20654;DHT22;21083;50.898;4.902;2022-08-21T02:37:44;17.00;99.90
20654;DHT22;21083;50.898;4.902;2022-08-21T02:40:13;17.00;99.90
20654;DHT22;21083;50.898;4.902;2022-08-21T02:42:40;17.00;99.90
20654;DHT22;21083;50.898;4.902;2022-08-21T02:45:07;17.00;99.90
20654;DHT22;21083;50.898;4.902;2022-08-21T02:47:36;17.00;99.90
20654;DHT22;21083;50.898;4.902;2022-08-21T02:50:04;16.90;99.90
20654;DHT22;21083;50.898;4.902;2022-08-21T02:52:31;16.90;99.90
20654;DHT22;21083;50.898;4.902;2022-08-21T02:54:59;16.80;99.90
20654;DHT22;21083;50.898;4.902;2022-08-21T02:57:26;16.80;99.90
20654;DHT22;21083;50.898;4.902;2022-08-21T02:59:53;16.90;99.90
20654;DHT22;21083;50.898;4.902;2022-08-21T03:02:19;16.80;99.90
20654;DHT22;21083;50.898;4.902;2022-08-21T03:04:48;16.80;99.90
20654;DHT22;21083;50.898;4.902;2022-08-21T03:07:15;16.90;99.90
20654;DHT22;21083;50.898;4.902;2022-08-21T03:09:42;16.90;99.90
20654;DHT22;21083;50.898;4.902;2022-08-21T03:12:09;16.80;99.90
20654;DHT22;21083;50.898;4.902;2022-08-21T03:14:35;16.80;99.90
20654;DHT22;21083;50.898;4.902;2022-08-21T03:17:04;16.80;99.90
20654;DHT22;21083;50.898;4.902;2022-08-21T03:19:31;16.80;99.90
20654;DHT22;21083;50.898;4.902;2022-08-21T03:21:59;16.80;99.90
20654;DHT22;21083;50.898;4.902;2022-08-21T03:24:26;16.80;99.90
20654;DHT22;21083;50.898;4.902;2022-08-21T03:26:53;16.70;99.90
20654;DHT22;21083;50.898;4.902;2022-08-21T03:29:20;16.70;99.90
20654;DHT22;21083;50.898;4.902;2022-08-21T03:31:47;16.60;99.90
20654;DHT22;21083;50.898;4.902;2022-08-21T03:34:14;16.60;99.90
20654;DHT22;21083;50.898;4.902;2022-08-21T03:36:40;16.50;99.90
20654;DHT22;21083;50.898;4.902;2022-08-21T03:39:09;16.50;99.90
20654;DHT22;21083;50.898;4.902;2022-08-21T03:41:36;16.50;99.90
20654;DHT22;21083;50.898;4.902;2022-08-21T03:44:03;16.40;99.90
20654;DHT22;21083;50.898;4.902;2022-08-21T03:46:30;16.50;99.90
20654;DHT22;21083;50.898;4.902;2022-08-21T03:48:57;16.50;99.90
20654;DHT22;21083;50.898;4.902;2022-08-21T03:51:24;16.40;99.90
20654;DHT22;21083;50.898;4.902;2022-08-21T03:53:51;16.40;99.90
20654;DHT22;21083;50.898;4.902;2022-08-21T03:56:19;16.50;99.90
20654;DHT22;21083;50.898;4.902;2022-08-21T03:58:46;16.50;99.90
20654;DHT22;21083;50.898;4.902;2022-08-21T04:01:13;16.50;99.90
20654;DHT22;21083;50.898;4.902;2022-08-21T04:03:40;16.50;99.90
20654;DHT22;21083;50.898;4.902;2022-08-21T04:06:07;16.50;99.90
20654;DHT22;21083;50.898;4.902;2022-08-21T04:08:34;16.50;99.90
20654;DHT22;21083;50.898;4.902;2022-08-21T04:11:02;16.50;99.90
20654;DHT22;21083;50.898;4.902;2022-08-21T04:13:30;16.40;99.90
20654;DHT22;21083;50.898;4.902;2022-08-21T04:15:57;16.50;99.90
20654;DHT22;21083;50.898;4.902;2022-08-21T04:18:24;16.40;99.90
20654;DHT22;21083;50.898;4.902;2022-08-21T04:20:53;16.30;99.90
20654;DHT22;21083;50.898;4.902;2022-08-21T04:23:21;16.20;99.90
20654;DHT22;21083;50.898;4.902;2022-08-21T04:25:48;16.20;99.90
20654;DHT22;21083;50.898;4.902;2022-08-21T04:28:15;16.20;99.90
20654;DHT22;21083;50.898;4.902;2022-08-21T04:30:43;16.10;99.90
20654;DHT22;21083;50.898;4.902;2022-08-21T04:33:11;16.10;99.90
20654;DHT22;21083;50.898;4.902;2022-08-21T04:35:38;16.10;99.90
20654;DHT22;21083;50.898;4.902;2022-08-21T04:38:04;16.20;99.90
20654;DHT22;21083;50.898;4.902;2022-08-21T04:40:31;16.10;99.90
20654;DHT22;21083;50.898;4.902;2022-08-21T04:43:01;16.00;99.90
20654;DHT22;21083;50.898;4.902;2022-08-21T04:45:30;16.00;99.90
20654;DHT22;21083;50.898;4.902;2022-08-21T04:48:00;16.00;99.90
20654;DHT22;21083;50.898;4.902;2022-08-21T04:50:29;15.90;99.90
20654;DHT22;21083;50.898;4.902;2022-08-21T04:52:57;15.90;99.90
20654;DHT22;21083;50.898;4.902;2022-08-21T04:55:24;15.90;99.90
20654;DHT22;21083;50.898;4.902;2022-08-21T04:57:54;15.90;99.90
20654;DHT22;21083;50.898;4.902;2022-08-21T05:00:23;15.90;99.90
20654;DHT22;21083;50.898;4.902;2022-08-21T05:02:52;15.80;99.90
20654;DHT22;21083;50.898;4.902;2022-08-21T05:05:23;15.80;99.90
20654;DHT22;21083;50.898;4.902;2022-08-21T05:07:51;15.80;99.90
20654;DHT22;21083;50.898;4.902;2022-08-21T05:10:19;15.90;99.90
20654;DHT22;21083;50.898;4.902;2022-08-21T05:12:46;15.90;99.90
20654;DHT22;21083;50.898;4.902;2022-08-21T05:15:13;15.90;99.90
20654;DHT22;21083;50.898;4.902;2022-08-21T05:17:40;15.90;99.90
20654;DHT22;21083;50.898;4.902;2022-08-21T05:20:08;15.90;99.90
20654;DHT22;21083;50.898;4.902;2022-08-21T05:22:37;16.00;99.90
20654;DHT22;21083;50.898;4.902;2022-08-21T05:25:05;16.00;99.90
20654;DHT22;21083;50.898;4.902;2022-08-21T05:27:32;16.00;99.90
20654;DHT22;21083;50.898;4.902;2022-08-21T05:30:00;16.00;99.90
20654;DHT22;21083;50.898;4.902;2022-08-21T05:32:27;16.00;99.90
20654;DHT22;21083;50.898;4.902;2022-08-21T05:34:55;16.00;99.90
20654;DHT22;21083;50.898;4.902;2022-08-21T05:37:22;16.10;99.90
20654;DHT22;21083;50.898;4.902;2022-08-21T05:39:50;16.10;99.90
20654;DHT22;21083;50.898;4.902;2022-08-21T05:42:17;16.10;99.90
20654;DHT22;21083;50.898;4.902;2022-08-21T05:44:44;16.10;99.90
20654;DHT22;21083;50.898;4.902;2022-08-21T05:47:11;16.10;99.90
20654;DHT22;21083;50.898;4.902;2022-08-21T05:49:38;16.20;99.90
20654;DHT22;21083;50.898;4.902;2022-08-21T05:52:05;16.20;99.90
20654;DHT22;21083;50.898;4.902;2022-08-21T05:54:32;16.30;99.90
20654;DHT22;21083;50.898;4.902;2022-08-21T05:57:00;16.30;99.90
20654;DHT22;21083;50.898;4.902;2022-08-21T05:59:27;16.30;99.90
20654;DHT22;21083;50.898;4.902;2022-08-21T06:01:54;16.40;99.90
20654;DHT22;21083;50.898;4.902;2022-08-21T06:04:21;16.40;99.90
20654;DHT22;21083;50.898;4.902;2022-08-21T06:06:48;16.40;99.90
20654;DHT22;21083;50.898;4.902;2022-08-21T06:09:15;16.40;99.90
20654;DHT22;21083;50.898;4.902;2022-08-21T06:11:42;16.40;99.90
20654;DHT22;21083;50.898;4.902;2022-08-21T06:14:13;16.40;99.90
20654;DHT22;21083;50.898;4.902;2022-08-21T06:16:41;16.40;99.90
20654;DHT22;21083;50.898;4.902;2022-08-21T06:19:08;16.40;99.90
20654;DHT22;21083;50.898;4.902;2022-08-21T06:21:35;16.50;99.90
20654;DHT22;21083;50.898;4.902;2022-08-21T06:24:02;16.60;99.90
20654;DHT22;21083;50.898;4.902;2022-08-21T06:26:30;16.70;99.90
20654;DHT22;21083;50.898;4.902;2022-08-21T06:28:57;16.80;99.90
20654;DHT22;21083;50.898;4.902;2022-08-21T06:31:27;16.80;99.90
20654;DHT22;21083;50.898;4.902;2022-08-21T06:33:55;16.80;99.90
20654;DHT22;21083;50.898;4.902;2022-08-21T06:36:22;16.80;99.90
20654;DHT22;21083;50.898;4.902;2022-08-21T06:38:49;16.90;99.90
20654;DHT22;21083;50.898;4.902;2022-08-21T06:41:16;17.00;99.90
20654;DHT22;21083;50.898;4.902;2022-08-21T06:43:43;17.00;99.90
20654;DHT22;21083;50.898;4.902;2022-08-21T06:46:10;17.10;99.90
20654;DHT22;21083;50.898;4.902;2022-08-21T06:48:38;17.10;99.90
20654;DHT22;21083;50.898;4.902;2022-08-21T06:51:05;17.20;99.90
20654;DHT22;21083;50.898;4.902;2022-08-21T06:53:32;17.20;99.90
20654;DHT22;21083;50.898;4.902;2022-08-21T06:55:59;17.20;99.90
20654;DHT22;21083;50.898;4.902;2022-08-21T06:58:26;17.30;99.90
20654;DHT22;21083;50.898;4.902;2022-08-21T07:00:54;17.40;99.90
20654;DHT22;21083;50.898;4.902;2022-08-21T07:03:23;17.40;99.90
20654;DHT22;21083;50.898;4.902;2022-08-21T07:05:52;17.40;99.90
20654;DHT22;21083;50.898;4.902;2022-08-21T07:08:19;17.40;99.90
20654;DHT22;21083;50.898;4.902;2022-08-21T07:10:47;17.50;99.90
20654;DHT22;21083;50.898;4.902;2022-08-21T07:13:15;17.70;99.90
20654;DHT22;21083;50.898;4.902;2022-08-21T07:15:42;17.90;99.90
20654;DHT22;21083;50.898;4.902;2022-08-21T07:18:10;17.80;99.90
20654;DHT22;21083;50.898;4.902;2022-08-21T07:20:37;17.80;99.90
20654;DHT22;21083;50.898;4.902;2022-08-21T07:23:09;17.80;99.90
20654;DHT22;21083;50.898;4.902;2022-08-21T07:25:37;17.80;99.90
20654;DHT22;21083;50.898;4.902;2022-08-21T07:28:04;17.90;99.90
20654;DHT22;21083;50.898;4.902;2022-08-21T07:30:31;18.00;99.90
20654;DHT22;21083;50.898;4.902;2022-08-21T07:32:58;18.10;99.90
20654;DHT22;21083;50.898;4.902;2022-08-21T07:35:25;18.20;99.90
20654;DHT22;21083;50.898;4.902;2022-08-21T07:37:53;18.40;99.90
20654;DHT22;21083;50.898;4.902;2022-08-21T07:40:21;18.40;99.90
20654;DHT22;21083;50.898;4.902;2022-08-21T07:42:49;18.60;99.90
20654;DHT22;21083;50.898;4.902;2022-08-21T07:45:18;18.80;99.90
20654;DHT22;21083;50.898;4.902;2022-08-21T07:47:45;18.90;99.90
20654;DHT22;21083;50.898;4.902;2022-08-21T07:50:13;19.10;99.90
20654;DHT22;21083;50.898;4.902;2022-08-21T07:52:40;19.30;99.90
20654;DHT22;21083;50.898;4.902;2022-08-21T07:55:08;19.40;99.90
20654;DHT22;21083;50.898;4.902;2022-08-21T07:57:37;19.60;99.90
20654;DHT22;21083;50.898;4.902;2022-08-21T08:00:06;19.60;99.90
20654;DHT22;21083;50.898;4.902;2022-08-21T08:02:34;19.60;99.90
20654;DHT22;21083;50.898;4.902;2022-08-21T08:05:02;19.50;99.90
20654;DHT22;21083;50.898;4.902;2022-08-21T08:07:30;19.70;99.90
20654;DHT22;21083;50.898;4.902;2022-08-21T08:09:57;19.80;99.90
20654;DHT22;21083;50.898;4.902;2022-08-21T08:12:24;19.80;99.90
20654;DHT22;21083;50.898;4.902;2022-08-21T08:14:56;20.00;99.90
20654;DHT22;21083;50.898;4.902;2022-08-21T08:17:23;20.20;99.90
20654;DHT22;21083;50.898;4.902;2022-08-21T08:19:50;20.30;99.90
20654;DHT22;21083;50.898;4.902;2022-08-21T08:22:18;20.20;99.90
20654;DHT22;21083;50.898;4.902;2022-08-21T08:24:46;20.40;99.90
20654;DHT22;21083;50.898;4.902;2022-08-21T08:27:13;20.50;99.90
20654;DHT22;21083;50.898;4.902;2022-08-21T08:29:40;20.50;99.90
20654;DHT22;21083;50.898;4.902;2022-08-21T08:32:09;20.60;99.90
20654;DHT22;21083;50.898;4.902;2022-08-21T08:34:37;20.70;99.90
20654;DHT22;21083;50.898;4.902;2022-08-21T08:37:06;20.90;99.90
20654;DHT22;21083;50.898;4.902;2022-08-21T08:39:34;21.10;99.90
20654;DHT22;21083;50.898;4.902;2022-08-21T08:42:05;21.20;99.90
20654;DHT22;21083;50.898;4.902;2022-08-21T08:44:32;21.20;99.90
20654;DHT22;21083;50.898;4.902;2022-08-21T08:47:01;21.40;99.90
20654;DHT22;21083;50.898;4.902;2022-08-21T08:49:36;21.50;99.90
20654;DHT22;21083;50.898;4.902;2022-08-21T08:52:07;21.40;99.90
20654;DHT22;21083;50.898;4.902;2022-08-21T08:54:40;21.40;99.90
20654;DHT22;21083;50.898;4.902;2022-08-21T08:57:19;21.30;99.90
20654;DHT22;21083;50.898;4.902;2022-08-21T08:59:48;21.30;99.90
20654;DHT22;21083;50.898;4.902;2022-08-21T09:02:17;21.30;99.90
20654;DHT22;21083;50.898;4.902;2022-08-21T09:04:47;21.30;99.90
20654;DHT22;21083;50.898;4.902;2022-08-21T09:07:20;21.10;99.90
20654;DHT22;21083;50.898;4.902;2022-08-21T09:10:06;21.40;99.90
20654;DHT22;21083;50.898;4.902;2022-08-21T09:12:44;21.70;99.90
20654;DHT22;21083;50.898;4.902;2022-08-21T09:15:20;21.90;99.90
20654;DHT22;21083;50.898;4.902;2022-08-21T09:18:13;21.90;99.90
20654;DHT22;21083;50.898;4.902;2022-08-21T09:20:53;21.80;99.90
20654;DHT22;21083;50.898;4.902;2022-08-21T09:23:27;21.70;99.90
20654;DHT22;21083;50.898;4.902;2022-08-21T09:26:02;22.00;99.90
20654;DHT22;21083;50.898;4.902;2022-08-21T09:28:32;22.10;99.90
20654;DHT22;21083;50.898;4.902;2022-08-21T09:31:01;22.00;99.90
20654;DHT22;21083;50.898;4.902;2022-08-21T09:33:29;22.20;99.90
20654;DHT22;21083;50.898;4.902;2022-08-21T09:35:58;22.20;99.90
20654;DHT22;21083;50.898;4.902;2022-08-21T09:38:28;22.40;99.90
20654;DHT22;21083;50.898;4.902;2022-08-21T09:41:00;22.30;99.90
20654;DHT22;21083;50.898;4.902;2022-08-21T09:43:27;22.40;99.90
20654;DHT22;21083;50.898;4.902;2022-08-21T09:46:04;22.40;99.90
20654;DHT22;21083;50.898;4.902;2022-08-21T09:48:40;22.40;99.90
20654;DHT22;21083;50.898;4.902;2022-08-21T09:51:11;22.40;99.90
20654;DHT22;21083;50.898;4.902;2022-08-21T09:53:42;22.50;99.90
20654;DHT22;21083;50.898;4.902;2022-08-21T09:56:18;22.70;99.90
20654;DHT22;21083;50.898;4.902;2022-08-21T09:59:14;22.70;99.90
20654;DHT22;21083;50.898;4.902;2022-08-21T10:01:44;22.60;99.90
20654;DHT22;21083;50.898;4.902;2022-08-21T10:04:11;23.00;99.90
20654;DHT22;21083;50.898;4.902;2022-08-21T10:06:40;23.20;99.90
20654;DHT22;21083;50.898;4.902;2022-08-21T10:09:09;23.30;99.90
20654;DHT22;21083;50.898;4.902;2022-08-21T10:11:36;23.40;99.90
20654;DHT22;21083;50.898;4.902;2022-08-21T10:14:14;23.60;99.90
20654;DHT22;21083;50.898;4.902;2022-08-21T10:16:54;24.10;99.90
20654;DHT22;21083;50.898;4.902;2022-08-21T10:19:32;24.60;99.90
20654;DHT22;21083;50.898;4.902;2022-08-21T10:22:14;24.80;99.90
20654;DHT22;21083;50.898;4.902;2022-08-21T10:24:51;24.40;99.90
20654;DHT22;21083;50.898;4.902;2022-08-21T10:27:29;24.20;99.90
20654;DHT22;21083;50.898;4.902;2022-08-21T10:30:04;23.90;99.90
20654;DHT22;21083;50.898;4.902;2022-08-21T10:32:47;23.80;99.90
20654;DHT22;21083;50.898;4.902;2022-08-21T10:35:22;23.70;99.90
20654;DHT22;21083;50.898;4.902;2022-08-21T10:38:27;23.70;99.90
20654;DHT22;21083;50.898;4.902;2022-08-21T10:41:03;23.80;99.90
20654;DHT22;21083;50.898;4.902;2022-08-21T10:43:41;23.90;99.90
20654;DHT22;21083;50.898;4.902;2022-08-21T10:46:15;24.10;99.90
20654;DHT22;21083;50.898;4.902;2022-08-21T10:48:47;23.90;99.90
20654;DHT22;21083;50.898;4.902;2022-08-21T10:51:23;23.70;99.90
20654;DHT22;21083;50.898;4.902;2022-08-21T10:54:00;23.90;99.90
20654;DHT22;21083;50.898;4.902;2022-08-21T10:56:30;23.80;99.90
20654;DHT22;21083;50.898;4.902;2022-08-21T10:59:04;23.80;99.90
20654;DHT22;21083;50.898;4.902;2022-08-21T11:01:39;24.00;99.90
20654;DHT22;21083;50.898;4.902;2022-08-21T11:04:16;24.40;99.90
20654;DHT22;21083;50.898;4.902;2022-08-21T11:06:49;24.60;99.90
20654;DHT22;21083;50.898;4.902;2022-08-21T11:09:22;24.80;99.90
20654;DHT22;21083;50.898;4.902;2022-08-21T11:11:55;25.00;99.90
20654;DHT22;21083;50.898;4.902;2022-08-21T11:14:28;25.30;99.90
20654;DHT22;21083;50.898;4.902;2022-08-21T11:17:02;25.30;99.90
20654;DHT22;21083;50.898;4.902;2022-08-21T11:19:36;25.00;99.90
20654;DHT22;21083;50.898;4.902;2022-08-21T11:22:11;24.90;99.90
20654;DHT22;21083;50.898;4.902;2022-08-21T11:24:48;24.60;99.90
20654;DHT22;21083;50.898;4.902;2022-08-21T11:27:21;24.50;99.90
20654;DHT22;21083;50.898;4.902;2022-08-21T11:29:51;24.80;99.90
20654;DHT22;21083;50.898;4.902;2022-08-21T11:35:22;25.40;99.90
20654;DHT22;21083;50.898;4.902;2022-08-21T11:38:01;25.40;99.90
20654;DHT22;21083;50.898;4.902;2022-08-21T11:40:45;25.80;99.90
20654;DHT22;21083;50.898;4.902;2022-08-21T11:43:21;25.50;99.90
20654;DHT22;21083;50.898;4.902;2022-08-21T11:45:54;25.20;99.90
20654;DHT22;21083;50.898;4.902;2022-08-21T11:48:33;25.40;99.90
20654;DHT22;21083;50.898;4.902;2022-08-21T11:51:10;25.70;99.90
20654;DHT22;21083;50.898;4.902;2022-08-21T11:53:46;26.10;99.90
20654;DHT22;21083;50.898;4.902;2022-08-21T11:56:22;26.50;99.90
20654;DHT22;21083;50.898;4.902;2022-08-21T11:58:55;26.30;99.90
20654;DHT22;21083;50.898;4.902;2022-08-21T12:01:25;26.30;99.90
20654;DHT22;21083;50.898;4.902;2022-08-21T12:03:57;26.40;99.90
20654;DHT22;21083;50.898;4.902;2022-08-21T12:06:30;26.40;99.90
20654;DHT22;21083;50.898;4.902;2022-08-21T12:08:59;26.10;99.90
20654;DHT22;21083;50.898;4.902;2022-08-21T12:11:28;26.00;99.90
20654;DHT22;21083;50.898;4.902;2022-08-21T12:13:57;26.10;99.90
20654;DHT22;21083;50.898;4.902;2022-08-21T12:16:32;26.20;99.90
20654;DHT22;21083;50.898;4.902;2022-08-21T12:19:05;26.50;99.90
20654;DHT22;21083;50.898;4.902;2022-08-21T12:21:34;26.90;99.90
20654;DHT22;21083;50.898;4.902;2022-08-21T12:24:18;27.20;99.90
20654;DHT22;21083;50.898;4.902;2022-08-21T12:26:51;27.40;99.90
20654;DHT22;21083;50.898;4.902;2022-08-21T12:29:23;27.30;99.90
20654;DHT22;21083;50.898;4.902;2022-08-21T12:31:55;27.30;99.90
20654;DHT22;21083;50.898;4.902;2022-08-21T12:34:27;27.80;99.90
20654;DHT22;21083;50.898;4.902;2022-08-21T12:36:59;28.00;99.90
20654;DHT22;21083;50.898;4.902;2022-08-21T12:39:29;28.30;99.90
20654;DHT22;21083;50.898;4.902;2022-08-21T12:42:00;27.60;99.90
20654;DHT22;21083;50.898;4.902;2022-08-21T12:44:39;27.30;99.90
20654;DHT22;21083;50.898;4.902;2022-08-21T12:47:17;27.30;99.90
20654;DHT22;21083;50.898;4.902;2022-08-21T12:49:54;27.50;99.90
20654;DHT22;21083;50.898;4.902;2022-08-21T12:52:27;27.60;99.90
20654;DHT22;21083;50.898;4.902;2022-08-21T12:54:55;27.90;99.90
20654;DHT22;21083;50.898;4.902;2022-08-21T12:57:28;28.10;99.90
20654;DHT22;21083;50.898;4.902;2022-08-21T12:59:58;28.00;99.90
20654;DHT22;21083;50.898;4.902;2022-08-21T13:02:28;28.20;99.90
20654;DHT22;21083;50.898;4.902;2022-08-21T13:04:56;28.00;99.90
20654;DHT22;21083;50.898;4.902;2022-08-21T13:07:28;27.20;99.90
20654;DHT22;21083;50.898;4.902;2022-08-21T13:10:00;27.30;99.90
20654;DHT22;21083;50.898;4.902;2022-08-21T13:12:30;27.90;99.90
20654;DHT22;21083;50.898;4.902;2022-08-21T13:15:00;28.00;99.90
20654;DHT22;21083;50.898;4.902;2022-08-21T13:17:31;28.10;99.90
20654;DHT22;21083;50.898;4.902;2022-08-21T13:20:02;28.40;99.90
20654;DHT22;21083;50.898;4.902;2022-08-21T13:22:29;28.40;99.90
20654;DHT22;21083;50.898;4.902;2022-08-21T13:24:57;28.30;99.90
20654;DHT22;21083;50.898;4.902;2022-08-21T13:27:26;28.60;99.90
20654;DHT22;21083;50.898;4.902;2022-08-21T13:30:10;28.10;99.90
20654;DHT22;21083;50.898;4.902;2022-08-21T13:32:42;28.10;99.90
20654;DHT22;21083;50.898;4.902;2022-08-21T13:35:16;28.50;99.90
20654;DHT22;21083;50.898;4.902;2022-08-21T13:37:45;28.90;99.90
20654;DHT22;21083;50.898;4.902;2022-08-21T13:40:15;28.70;99.90
20654;DHT22;21083;50.898;4.902;2022-08-21T13:42:45;28.40;99.90
20654;DHT22;21083;50.898;4.902;2022-08-21T13:45:21;28.00;99.90
20654;DHT22;21083;50.898;4.902;2022-08-21T13:47:48;28.00;99.90
20654;DHT22;21083;50.898;4.902;2022-08-21T13:50:16;28.10;99.90
20654;DHT22;21083;50.898;4.902;2022-08-21T13:52:48;28.20;99.90
20654;DHT22;21083;50.898;4.902;2022-08-21T13:55:17;28.20;99.90
20654;DHT22;21083;50.898;4.902;2022-08-21T13:57:44;28.10;99.90
20654;DHT22;21083;50.898;4.902;2022-08-21T14:00:13;28.10;99.90
20654;DHT22;21083;50.898;4.902;2022-08-21T14:02:44;28.10;99.90
20654;DHT22;21083;50.898;4.902;2022-08-21T14:05:15;28.10;99.90
20654;DHT22;21083;50.898;4.902;2022-08-21T14:07:43;28.30;99.90
20654;DHT22;21083;50.898;4.902;2022-08-21T14:10:14;28.50;99.90
20654;DHT22;21083;50.898;4.902;2022-08-21T14:12:44;28.30;99.90
20654;DHT22;21083;50.898;4.902;2022-08-21T14:15:14;28.20;99.90
20654;DHT22;21083;50.898;4.902;2022-08-21T14:17:43;28.00;99.90
20654;DHT22;21083;50.898;4.902;2022-08-21T14:20:13;27.90;99.90
20654;DHT22;21083;50.898;4.902;2022-08-21T14:22:51;28.10;99.90
20654;DHT22;21083;50.898;4.902;2022-08-21T14:25:28;28.00;99.90
20654;DHT22;21083;50.898;4.902;2022-08-21T14:27:58;28.10;99.90
20654;DHT22;21083;50.898;4.902;2022-08-21T14:30:29;27.90;99.90
20654;DHT22;21083;50.898;4.902;2022-08-21T14:32:58;27.80;99.90
20654;DHT22;21083;50.898;4.902;2022-08-21T14:35:25;27.70;99.90
20654;DHT22;21083;50.898;4.902;2022-08-21T14:37:53;27.80;99.90
20654;DHT22;21083;50.898;4.902;2022-08-21T14:40:23;28.00;99.90
20654;DHT22;21083;50.898;4.902;2022-08-21T14:42:50;27.90;99.90
20654;DHT22;21083;50.898;4.902;2022-08-21T14:45:20;27.90;99.90
20654;DHT22;21083;50.898;4.902;2022-08-21T14:47:49;27.70;99.90
20654;DHT22;21083;50.898;4.902;2022-08-21T14:50:18;27.50;99.90
20654;DHT22;21083;50.898;4.902;2022-08-21T14:52:45;27.50;99.90
20654;DHT22;21083;50.898;4.902;2022-08-21T14:55:13;27.30;99.90
20654;DHT22;21083;50.898;4.902;2022-08-21T14:57:41;27.30;99.90
20654;DHT22;21083;50.898;4.902;2022-08-21T15:00:12;27.30;99.90
20654;DHT22;21083;50.898;4.902;2022-08-21T15:02:39;27.00;99.90
20654;DHT22;21083;50.898;4.902;2022-08-21T15:05:07;26.80;99.90
20654;DHT22;21083;50.898;4.902;2022-08-21T15:07:35;26.80;99.90
20654;DHT22;21083;50.898;4.902;2022-08-21T15:10:04;26.90;99.90
20654;DHT22;21083;50.898;4.902;2022-08-21T15:12:31;26.80;99.90
20654;DHT22;21083;50.898;4.902;2022-08-21T15:14:58;26.90;99.90
20654;DHT22;21083;50.898;4.902;2022-08-21T15:17:25;26.70;99.90
20654;DHT22;21083;50.898;4.902;2022-08-21T15:19:52;26.70;99.90
20654;DHT22;21083;50.898;4.902;2022-08-21T15:22:19;26.70;99.90
20654;DHT22;21083;50.898;4.902;2022-08-21T15:24:48;26.70;99.90
20654;DHT22;21083;50.898;4.902;2022-08-21T15:27:16;26.50;99.90
20654;DHT22;21083;50.898;4.902;2022-08-21T15:29:44;26.50;99.90
20654;DHT22;21083;50.898;4.902;2022-08-21T15:32:20;26.50;99.90
20654;DHT22;21083;50.898;4.902;2022-08-21T15:34:48;26.50;99.90
20654;DHT22;21083;50.898;4.902;2022-08-21T15:37:15;26.20;99.90
20654;DHT22;21083;50.898;4.902;2022-08-21T15:39:42;26.20;99.90
20654;DHT22;21083;50.898;4.902;2022-08-21T15:42:11;26.30;99.90
20654;DHT22;21083;50.898;4.902;2022-08-21T15:44:39;26.20;99.90
20654;DHT22;21083;50.898;4.902;2022-08-21T15:47:07;26.20;99.90
20654;DHT22;21083;50.898;4.902;2022-08-21T15:49:36;26.50;99.90